Time;durP1;ratioP1;P1;durP2;ratioP2;P2;SDS_P1;SDS_P2;PMS_P1;PMS_P2;Temp;Humidity;BMP_temperature;BMP_pressure;BME280_temperature;BME280_humidity;BME280_pressure;Samples;Min_cycle;Max_cycle;Signal;HPM_P1;HPM_P2
2023/11/27 00:02:23;;;;;;;1.00;1.00;;;;;;;1.91;90.81;98265.22;4995158;28;20046;-76
2023/11/27 00:04:49;;;;;;;0.90;0.90;;;;;;;1.77;91.69;98260.91;4996231;28;20144;-76
2023/11/27 00:07:15;;;;;;;1.00;1.00;;;;;;;1.71;92.26;98261.50;4993349;28;20395;-77
2023/11/27 00:09:40;;;;;;;1.00;1.00;;;;;;;1.63;92.24;98256.63;4994336;28;20042;-77
2023/11/27 00:12:07;;;;;;;1.10;1.10;;;;;;;1.60;92.48;98259.09;4996451;28;20022;-76
2023/11/27 00:14:32;;;;;;;1.00;1.00;;;;;;;1.68;92.11;98253.44;4997750;28;20025;-76
2023/11/27 00:16:57;;;;;;;0.95;0.95;;;;;;;1.53;92.62;98255.19;4996307;28;20786;-76
2023/11/27 00:19:23;;;;;;;0.93;0.93;;;;;;;1.48;93.55;98257.56;5000059;28;20678;-76
2023/11/27 00:21:49;;;;;;;1.00;1.00;;;;;;;1.42;93.52;98251.06;4994530;28;20716;-77
2023/11/27 00:24:14;;;;;;;0.90;0.90;;;;;;;1.38;93.76;98244.72;4998321;28;20613;-77
2023/11/27 00:26:40;;;;;;;1.00;1.00;;;;;;;1.36;93.84;98246.38;4995404;28;20105;-77
2023/11/27 00:29:05;;;;;;;1.00;1.00;;;;;;;1.44;93.80;98236.31;4993588;28;20035;-77
2023/11/27 00:31:32;;;;;;;1.00;1.00;;;;;;;1.63;93.55;98238.22;4999107;28;20099;-76
2023/11/27 00:33:58;;;;;;;1.00;1.00;;;;;;;1.66;93.62;98227.88;4992454;28;20434;-77
2023/11/27 00:36:23;;;;;;;0.90;0.90;;;;;;;1.71;93.72;98229.94;5009017;28;20025;-76
2023/11/27 00:38:49;;;;;;;0.93;0.93;;;;;;;1.58;93.74;98230.06;4996416;28;20030;-77
2023/11/27 00:41:14;;;;;;;1.00;1.00;;;;;;;1.58;93.63;98216.91;4995669;28;20560;-77
2023/11/27 00:43:41;;;;;;;1.00;1.00;;;;;;;1.74;93.94;98223.97;4993600;28;20542;-77
2023/11/27 00:46:07;;;;;;;0.90;0.90;;;;;;;1.66;93.60;98214.72;5003660;28;20108;-77
2023/11/27 00:48:33;;;;;;;1.10;1.10;;;;;;;1.58;93.34;98216.91;4998026;28;20034;-76
2023/11/27 00:50:59;;;;;;;1.10;1.10;;;;;;;1.60;93.58;98217.94;5001019;28;20412;-77
2023/11/27 00:53:24;;;;;;;1.00;1.00;;;;;;;1.68;93.45;98208.75;5000633;28;20168;-76
2023/11/27 00:55:50;;;;;;;0.90;0.90;;;;;;;1.66;93.60;98215.63;4998301;28;20036;-77
2023/11/27 00:58:15;;;;;;;1.00;1.00;;;;;;;1.60;93.96;98201.25;4998948;28;20502;-76
2023/11/27 01:00:41;;;;;;;0.90;0.90;;;;;;;1.58;94.05;98201.16;4997655;28;21341;-76
2023/11/27 01:03:07;;;;;;;1.00;1.00;;;;;;;1.54;94.32;98199.19;4996451;28;20027;-77
2023/11/27 01:05:32;;;;;;;1.00;1.00;;;;;;;1.52;93.93;98192.94;4999063;28;20487;-76
2023/11/27 01:07:59;;;;;;;1.00;1.00;;;;;;;1.48;93.82;98193.56;5001650;28;20491;-77
2023/11/27 01:10:25;;;;;;;;;;;;;;;1.42;94.09;98182.72;4997348;28;20833;-76
2023/11/27 01:12:50;;;;;;;0.95;0.95;;;;;;;1.53;94.28;98181.59;4998524;28;19981;-77
2023/11/27 01:15:16;;;;;;;0.90;0.90;;;;;;;1.55;94.38;98179.97;5001238;28;20030;-77
2023/11/27 01:17:42;;;;;;;1.00;1.00;;;;;;;1.48;94.47;98178.69;4997844;28;20033;-76
2023/11/27 01:20:09;;;;;;;1.00;1.00;;;;;;;1.45;94.38;98173.31;5001137;28;20129;-76
2023/11/27 01:22:36;;;;;;;1.00;1.00;;;;;;;1.48;94.14;98168.19;5010967;28;20498;-77
2023/11/27 01:25:03;;;;;;;1.02;1.02;;;;;;;1.49;94.47;98161.25;5012780;28;20029;-77
2023/11/27 01:27:28;;;;;;;1.00;1.00;;;;;;;1.45;94.31;98154.00;4996230;28;20112;-77
2023/11/27 01:29:53;;;;;;;1.00;1.00;;;;;;;1.44;94.60;98152.19;5002297;28;20034;-77
2023/11/27 01:32:19;;;;;;;0.93;0.93;;;;;;;1.48;94.34;98154.16;5000113;28;20025;-77
2023/11/27 01:34:44;;;;;;;1.00;1.00;;;;;;;1.36;94.54;98146.50;4997576;28;20372;-77
2023/11/27 01:37:10;;;;;;;1.00;1.00;;;;;;;1.35;94.58;98138.56;5001258;28;20936;-77
2023/11/27 01:39:36;;;;;;;1.00;1.00;;;;;;;1.32;94.57;98134.00;4997284;28;20029;-77
2023/11/27 01:42:03;;;;;;;1.00;1.00;;;;;;;1.31;94.36;98132.22;4996736;28;20037;-77
2023/11/27 01:44:29;;;;;;;;;;;;;;;1.36;94.56;98127.22;4998640;28;20709;-77
2023/11/27 01:46:55;;;;;;;1.00;1.00;;;;;;;1.36;94.70;98119.31;4995785;28;19964;-77
2023/11/27 01:49:22;;;;;;;1.10;1.10;;;;;;;1.30;94.59;98117.28;4997501;28;20561;-77
2023/11/27 01:51:47;;;;;;;;;;;;;;;1.30;94.67;98119.00;5001999;28;20056;-77
2023/11/27 01:54:14;;;;;;;1.00;1.00;;;;;;;1.32;94.88;98101.56;4999411;28;19921;-77
2023/11/27 01:56:43;;;;;;;1.08;1.08;;;;;;;1.25;94.81;98102.97;4997442;28;20017;-77
2023/11/27 01:59:10;;;;;;;1.00;1.00;;;;;;;1.28;94.39;98088.25;4996731;28;20042;-77
2023/11/27 02:01:35;;;;;;;1.10;1.10;;;;;;;1.26;94.17;98089.91;5011733;28;20502;-76
2023/11/27 02:04:02;;;;;;;1.00;1.00;;;;;;;1.31;94.24;98089.25;4997993;28;20038;-77
2023/11/27 02:06:28;;;;;;;1.10;1.10;;;;;;;1.37;94.23;98079.97;4997213;28;20034;-77
2023/11/27 02:08:56;;;;;;;1.00;1.00;;;;;;;1.35;94.05;98078.09;4999757;28;20419;-77
2023/11/27 02:11:30;;;;;;;1.00;1.00;;;;;;;1.21;94.43;98079.97;4999325;28;20030;-77
2023/11/27 02:13:56;;;;;;;1.00;1.00;;;;;;;1.23;94.52;98083.59;4994245;28;20026;-77
2023/11/27 02:16:22;;;;;;;1.10;1.10;;;;;;;1.27;94.17;98068.06;4997259;28;20033;-77
2023/11/27 02:18:48;;;;;;;1.10;1.10;;;;;;;1.20;94.29;98067.66;4999882;28;20542;-77
2023/11/27 02:21:13;;;;;;;1.00;1.00;;;;;;;1.25;94.13;98064.47;4997907;28;20109;-76
2023/11/27 02:23:38;;;;;;;1.10;1.10;;;;;;;1.24;94.40;98067.00;4997554;28;20443;-77
2023/11/27 02:26:05;;;;;;;1.00;1.00;;;;;;;1.29;93.93;98070.75;4997174;28;20037;-77
2023/11/27 02:28:30;;;;;;;1.10;1.10;;;;;;;1.20;94.16;98065.03;4995720;28;20046;-77
2023/11/27 02:30:56;;;;;;;1.05;1.05;;;;;;;1.21;94.12;98054.59;4995324;28;20089;-77
2023/11/27 02:33:21;;;;;;;0.90;0.90;;;;;;;1.22;94.40;98058.13;4999266;28;20124;-77
2023/11/27 02:35:48;;;;;;;1.00;1.00;;;;;;;1.04;94.26;98055.41;4997063;28;20732;-77
2023/11/27 02:38:14;;;;;;;1.10;1.10;;;;;;;1.11;94.18;98064.53;4997996;28;20068;-77
2023/11/27 02:40:40;;;;;;;1.00;1.00;;;;;;;0.92;94.53;98060.00;4994890;28;20065;-77
2023/11/27 02:43:05;;;;;;;1.02;1.02;;;;;;;0.87;94.48;98064.09;4992873;28;20125;-76
2023/11/27 02:45:33;;;;;;;1.00;1.00;;;;;;;0.92;94.38;98065.25;4993217;28;20121;-77
2023/11/27 02:47:58;;;;;;;1.00;1.00;;;;;;;0.89;94.46;98059.81;5001924;28;20084;-77
2023/11/27 02:50:24;;;;;;;1.10;1.10;;;;;;;0.84;94.66;98056.03;4998545;28;22016;-77
2023/11/27 02:52:49;;;;;;;1.00;1.00;;;;;;;0.80;94.62;98054.94;4998804;28;20036;-77
2023/11/27 02:55:16;;;;;;;1.02;1.02;;;;;;;0.75;94.64;98053.78;4994497;28;20471;-77
2023/11/27 02:57:42;;;;;;;1.00;1.00;;;;;;;0.63;94.73;98043.50;4994337;28;20046;-76
2023/11/27 03:00:12;;;;;;;1.00;1.00;;;;;;;0.71;94.86;98047.44;4996575;28;20034;-76
2023/11/27 03:02:40;;;;;;;1.00;1.00;;;;;;;0.71;94.62;98047.44;4999572;28;20038;-76
2023/11/27 03:05:08;;;;;;;1.00;1.00;;;;;;;0.77;94.72;98053.06;4994893;28;20026;-76
2023/11/27 03:07:37;;;;;;;;;;;;;;;0.82;94.73;98044.53;4994106;28;20169;-77
2023/11/27 03:10:03;;;;;;;1.10;1.10;;;;;;;0.82;95.08;98047.16;4993308;28;20044;-76
2023/11/27 03:12:29;;;;;;;1.00;1.00;;;;;;;0.72;95.28;98043.13;4994611;28;20065;-76
2023/11/27 03:14:54;;;;;;;1.00;1.00;;;;;;;0.71;95.08;98042.19;4993651;28;20068;-76
2023/11/27 03:17:21;;;;;;;1.10;1.10;;;;;;;0.72;95.10;98038.78;4985434;28;20765;-76
2023/11/27 03:19:47;;;;;;;1.10;1.10;;;;;;;0.80;94.96;98039.19;4997181;28;20029;-76
2023/11/27 03:22:12;;;;;;;1.00;1.00;;;;;;;0.80;94.57;98027.78;4992762;28;20160;-76
2023/11/27 03:24:38;;;;;;;1.10;1.10;;;;;;;0.74;95.09;98030.97;5000155;28;20057;-76
2023/11/27 03:27:04;;;;;;;1.00;1.00;;;;;;;0.69;94.96;98027.19;4996112;28;20021;-76
2023/11/27 03:29:29;;;;;;;1.00;1.00;;;;;;;0.71;95.22;98022.91;4997837;28;20022;-76
2023/11/27 03:31:55;;;;;;;1.00;1.00;;;;;;;0.88;94.82;98023.88;4994403;28;20034;-75
2023/11/27 03:34:20;;;;;;;1.02;1.02;;;;;;;0.94;94.62;98013.69;4985142;28;20036;-75
2023/11/27 03:36:46;;;;;;;1.10;1.10;;;;;;;0.89;95.08;98009.91;4994970;28;20751;-76
2023/11/27 03:39:11;;;;;;;1.00;1.00;;;;;;;0.84;94.99;98003.50;5000077;28;20359;-77
2023/11/27 03:41:36;;;;;;;1.00;1.00;;;;;;;0.85;94.86;98003.59;4989211;28;20026;-76
2023/11/27 03:44:02;;;;;;;1.10;1.10;;;;;;;0.79;95.13;98007.59;4985535;28;20421;-76
2023/11/27 03:46:27;;;;;;;1.10;1.10;;;;;;;0.85;95.17;98005.31;4999303;28;20472;-76
2023/11/27 03:48:53;;;;;;;1.10;1.10;;;;;;;0.81;95.15;98011.22;4992823;28;20125;-76
2023/11/27 03:51:18;;;;;;;1.00;1.00;;;;;;;0.90;95.48;98003.84;4994079;28;20037;-76
2023/11/27 03:53:44;;;;;;;0.95;0.95;;;;;;;1.01;95.33;98000.09;4994789;28;20042;-77
2023/11/27 03:56:09;;;;;;;1.00;1.00;;;;;;;1.14;95.18;98001.63;4993356;28;20069;-77
2023/11/27 03:58:34;;;;;;;1.05;1.05;;;;;;;1.08;94.67;97999.59;4993448;28;20040;-77
2023/11/27 04:01:03;;;;;;;1.00;1.00;;;;;;;1.13;95.03;97991.97;4993355;28;20042;-76
2023/11/27 04:03:29;;;;;;;0.90;0.90;;;;;;;1.03;94.73;97990.56;5011381;28;20105;-76
2023/11/27 04:05:54;;;;;;;0.98;0.98;;;;;;;1.11;94.72;97994.50;4993609;28;20111;-76
2023/11/27 04:08:20;;;;;;;1.00;1.00;;;;;;;1.15;94.75;97996.50;4993046;28;20043;-77
2023/11/27 04:10:46;;;;;;;1.10;1.10;;;;;;;1.19;94.62;97993.16;4993582;28;20029;-77
2023/11/27 04:13:12;;;;;;;0.90;0.90;;;;;;;1.14;94.49;97988.50;4994822;28;20092;-77
2023/11/27 04:15:37;;;;;;;1.00;1.00;;;;;;;1.37;94.53;97990.63;4992786;28;20034;-76
2023/11/27 04:18:03;;;;;;;1.00;1.00;;;;;;;1.26;94.17;97990.06;4996141;28;20033;-76
2023/11/27 04:20:28;;;;;;;1.00;1.00;;;;;;;1.17;94.54;97984.31;4994968;28;20376;-76
2023/11/27 04:22:54;;;;;;;1.00;1.00;;;;;;;1.20;94.61;97981.88;4993572;28;20025;-77
2023/11/27 04:25:19;;;;;;;1.00;1.00;;;;;;;1.37;94.35;97976.59;5000169;28;20025;-76
2023/11/27 04:27:45;;;;;;;1.00;1.00;;;;;;;1.41;93.92;97976.84;4991201;28;20464;-76
2023/11/27 04:30:10;;;;;;;1.00;1.00;;;;;;;1.26;93.96;97969.03;4994527;28;20049;-76
2023/11/27 04:32:36;;;;;;;1.00;1.00;;;;;;;1.11;94.04;97960.38;4995542;28;20117;-77
2023/11/27 04:35:01;;;;;;;1.00;1.00;;;;;;;1.02;94.21;97960.78;4993317;28;20125;-77
2023/11/27 04:37:27;;;;;;;1.00;1.00;;;;;;;0.98;94.39;97968.41;4993861;28;20069;-77
2023/11/27 04:39:52;;;;;;;0.90;0.90;;;;;;;0.93;94.47;97956.75;4996420;28;20018;-77
2023/11/27 04:42:18;;;;;;;1.00;1.00;;;;;;;0.92;94.50;97952.31;4994544;28;20447;-77
2023/11/27 04:44:44;;;;;;;1.00;1.00;;;;;;;0.95;94.72;97952.47;4995739;28;20118;-77
2023/11/27 04:47:09;;;;;;;1.00;1.00;;;;;;;0.95;94.44;97947.22;4993175;28;20411;-77
2023/11/27 04:49:35;;;;;;;1.05;1.05;;;;;;;0.96;94.59;97949.03;4994521;28;20038;-77
2023/11/27 04:52:01;;;;;;;1.00;1.00;;;;;;;0.91;94.34;97948.78;4995333;28;20468;-77
2023/11/27 04:54:26;;;;;;;1.00;1.00;;;;;;;0.94;94.26;97950.66;4996089;28;20447;-77
2023/11/27 04:56:52;;;;;;;1.00;1.00;;;;;;;0.95;94.18;97947.22;4992947;28;20038;-75
2023/11/27 04:59:17;;;;;;;1.05;1.05;;;;;;;0.96;94.30;97941.16;4997259;28;20021;-76
2023/11/27 05:01:43;;;;;;;1.00;1.00;;;;;;;0.83;94.59;97936.97;4993480;28;20038;-76
2023/11/27 05:04:08;;;;;;;1.10;1.10;;;;;;;0.82;94.87;97934.28;4993339;28;20033;-76
2023/11/27 05:06:33;;;;;;;1.00;1.00;;;;;;;0.74;94.53;97929.50;4996383;28;20092;-76
2023/11/27 05:08:59;;;;;;;1.00;1.00;;;;;;;0.66;94.89;97925.53;4997905;28;20545;-76
2023/11/27 05:11:25;;;;;;;1.00;1.00;;;;;;;0.58;95.23;97923.34;4995244;28;20105;-77
2023/11/27 05:13:51;;;;;;;1.00;1.00;;;;;;;0.61;95.25;97920.88;4994555;28;20034;-76
2023/11/27 05:16:17;;;;;;;1.00;1.00;;;;;;;0.65;95.34;97915.88;4993161;28;20092;-77
2023/11/27 05:18:44;;;;;;;1.10;1.10;;;;;;;0.58;95.23;97908.50;4995630;28;20689;-77
2023/11/27 05:21:16;;;;;;;1.10;1.10;;;;;;;0.65;95.72;97907.09;4991913;28;20034;-76
2023/11/27 05:23:49;;;;;;;1.08;1.08;;;;;;;0.66;95.65;97907.16;4994185;28;20033;-76
2023/11/27 05:26:18;;;;;;;1.10;1.10;;;;;;;0.49;95.40;97902.75;4994060;28;20045;-77
2023/11/27 05:28:44;;;;;;;1.00;1.00;;;;;;;0.42;95.97;97898.88;4992245;28;20041;-77
2023/11/27 05:31:14;;;;;;;1.00;1.00;;;;;;;0.32;95.52;97898.28;4993714;28;20034;-76
2023/11/27 05:33:40;;;;;;;1.00;1.00;;;;;;;0.31;95.98;97893.84;4997948;28;20464;-76
2023/11/27 05:36:09;;;;;;;1.10;1.10;;;;;;;0.39;95.92;97887.31;4996857;28;20033;-76
2023/11/27 05:38:35;;;;;;;0.90;0.90;;;;;;;0.37;96.00;97892.47;4997536;28;20050;-76
2023/11/27 05:41:01;;;;;;;1.08;1.08;;;;;;;0.34;95.99;97878.31;4995101;28;20030;-76
2023/11/27 05:43:28;;;;;;;1.00;1.00;;;;;;;0.30;95.75;97874.59;4996003;28;20038;-76
2023/11/27 05:45:56;;;;;;;1.00;1.00;;;;;;;0.29;95.57;97879.72;5002955;28;20045;-76
2023/11/27 05:48:22;;;;;;;1.10;1.10;;;;;;;0.26;95.46;97883.09;4997686;28;20291;-77
2023/11/27 05:50:47;;;;;;;1.10;1.10;;;;;;;0.27;95.75;97876.13;5002397;28;21032;-77
2023/11/27 05:53:13;;;;;;;1.05;1.05;;;;;;;0.22;95.75;97875.88;4983613;28;20093;-76
2023/11/27 05:55:39;;;;;;;1.00;1.00;;;;;;;0.31;95.52;97872.88;4997659;28;20026;-77
2023/11/27 05:58:06;;;;;;;1.00;1.00;;;;;;;0.22;95.80;97871.53;4999729;28;20046;-76
2023/11/27 06:00:34;;;;;;;1.00;1.00;;;;;;;0.25;95.68;97870.81;4994485;28;20102;-78
2023/11/27 06:03:14;;;;;;;1.00;1.00;;;;;;;0.26;95.64;97872.63;4994169;28;20030;-77
2023/11/27 06:05:51;;;;;;;1.00;1.00;;;;;;;0.33;95.48;97871.22;4994972;28;20037;-77
2023/11/27 06:08:18;;;;;;;1.10;1.10;;;;;;;0.20;95.75;97877.53;5000358;28;20053;-78
2023/11/27 06:10:45;;;;;;;1.10;1.10;;;;;;;0.35;95.61;97866.97;4998266;28;20038;-78
2023/11/27 06:13:12;;;;;;;0.90;0.90;;;;;;;0.43;95.71;97861.34;4995407;28;20614;-78
2023/11/27 06:15:38;;;;;;;1.10;1.10;;;;;;;0.47;95.54;97868.53;4998492;28;20633;-77
2023/11/27 06:18:03;;;;;;;1.10;1.10;;;;;;;0.44;95.27;97865.75;4997935;28;20787;-78
2023/11/27 06:20:29;;;;;;;1.10;1.10;;;;;;;0.43;94.74;97855.16;5003327;28;20054;-78
2023/11/27 06:22:57;;;;;;;1.00;1.00;;;;;;;0.36;95.04;97848.69;4996724;28;20427;-77
2023/11/27 06:25:22;;;;;;;1.00;1.00;;;;;;;0.30;95.55;97845.75;4997616;28;20034;-77
2023/11/27 06:27:50;;;;;;;1.00;1.00;;;;;;;0.31;94.89;97839.66;4996456;28;20537;-78
2023/11/27 06:30:16;;;;;;;1.00;1.00;;;;;;;0.28;94.97;97838.59;4996184;28;20586;-78
2023/11/27 06:32:44;;;;;;;1.00;1.00;;;;;;;0.31;94.97;97833.53;4997828;28;20030;-78
2023/11/27 06:35:12;;;;;;;1.10;1.10;;;;;;;0.28;94.96;97836.88;4997365;28;20042;-78
2023/11/27 06:37:44;;;;;;;1.10;1.10;;;;;;;0.31;95.04;97844.91;4994439;28;20100;-77
2023/11/27 06:40:09;;;;;;;1.10;1.10;;;;;;;0.31;95.33;97833.53;4995779;28;20049;-76
2023/11/27 06:42:37;;;;;;;1.10;1.10;;;;;;;0.20;95.24;97841.72;4992985;28;20034;-78
2023/11/27 06:45:04;;;;;;;1.10;1.10;;;;;;;0.23;95.64;97833.09;4997358;28;20479;-78
2023/11/27 06:47:30;;;;;;;1.10;1.10;;;;;;;0.25;95.63;97832.38;5002895;28;20048;-77
2023/11/27 06:49:56;;;;;;;1.10;1.10;;;;;;;0.32;95.43;97828.34;4994379;28;20490;-76
2023/11/27 06:52:22;;;;;;;1.00;1.00;;;;;;;0.27;95.42;97823.69;4997080;28;20096;-77
2023/11/27 06:54:50;;;;;;;1.10;1.10;;;;;;;0.32;95.19;97819.56;4993862;28;20439;-77
2023/11/27 06:57:16;;;;;;;1.10;1.10;;;;;;;0.35;95.13;97818.03;4999330;28;20038;-77
2023/11/27 06:59:46;;;;;;;1.05;1.05;;;;;;;0.36;94.87;97824.19;4995233;28;20029;-76
2023/11/27 07:02:14;;;;;;;1.00;1.00;;;;;;;0.50;95.33;97817.94;4993859;28;20035;-76
2023/11/27 07:04:42;;;;;;;1.00;1.00;;;;;;;0.70;94.64;97814.63;4995287;28;20034;-76
2023/11/27 07:07:19;;;;;;;1.10;1.10;;;;;;;0.58;94.79;97814.00;4996082;28;20037;-76
2023/11/27 07:09:45;;;;;;;1.10;1.10;;;;;;;0.72;94.21;97815.63;4993189;28;20266;-77
2023/11/27 07:12:11;;;;;;;1.00;1.00;;;;;;;0.69;94.64;97812.84;4993961;28;20108;-76
2023/11/27 07:14:36;;;;;;;1.00;1.00;;;;;;;0.66;94.17;97803.91;4994135;28;20041;-76
2023/11/27 07:17:03;;;;;;;1.00;1.00;;;;;;;0.63;94.38;97806.38;4994168;28;20038;-76
2023/11/27 07:19:28;;;;;;;1.10;1.10;;;;;;;0.72;94.43;97805.13;4994361;28;20022;-76
2023/11/27 07:21:54;;;;;;;1.00;1.00;;;;;;;0.79;94.76;97803.72;4994470;28;20052;-77
2023/11/27 07:24:19;;;;;;;1.00;1.00;;;;;;;0.66;94.25;97796.91;4997412;28;20042;-76
2023/11/27 07:26:46;;;;;;;1.00;1.00;;;;;;;0.62;94.19;97787.09;4997937;28;20037;-77
2023/11/27 07:29:12;;;;;;;1.00;1.00;;;;;;;0.70;94.02;97788.38;4996730;28;20043;-76
2023/11/27 07:31:37;;;;;;;1.00;1.00;;;;;;;0.94;93.96;97778.25;4997560;28;20113;-77
2023/11/27 07:34:06;;;;;;;1.10;1.10;;;;;;;0.99;94.15;97778.47;4994429;28;20598;-77
2023/11/27 07:36:31;;;;;;;1.00;1.00;;;;;;;1.01;93.43;97777.75;5010270;28;20125;-77
2023/11/27 07:38:57;;;;;;;1.05;1.05;;;;;;;1.20;93.46;97781.31;4995338;28;20101;-77
2023/11/27 07:41:22;;;;;;;1.00;1.00;;;;;;;1.20;93.34;97779.56;4995844;28;20117;-76
2023/11/27 07:43:49;;;;;;;1.00;1.00;;;;;;;1.21;93.12;97765.63;4995963;28;20423;-76
2023/11/27 07:46:15;;;;;;;1.10;1.10;;;;;;;1.28;93.18;97770.31;4998640;28;21097;-77
2023/11/27 07:48:44;;;;;;;1.00;1.00;;;;;;;1.49;93.13;97751.19;4978683;28;20041;-76
2023/11/27 07:51:09;;;;;;;0.90;0.90;;;;;;;1.53;92.68;97746.16;4992292;28;20349;-77
2023/11/27 07:53:36;;;;;;;1.00;1.00;;;;;;;1.56;92.87;97744.50;4995421;28;20033;-77
2023/11/27 07:56:02;;;;;;;1.10;1.10;;;;;;;1.53;92.53;97747.88;4993527;28;20049;-76
2023/11/27 07:58:28;;;;;;;1.10;1.10;;;;;;;1.50;92.25;97735.50;4996159;28;20022;-78
2023/11/27 08:00:53;;;;;;;1.10;1.10;;;;;;;1.70;92.07;97738.16;4993616;28;20814;-77
2023/11/27 08:03:20;;;;;;;1.00;1.00;;;;;;;1.56;89.19;97734.88;4992720;28;20038;-77
2023/11/27 08:05:47;;;;;;;1.08;1.08;;;;;;;1.60;87.90;97725.44;4999048;28;20046;-77
2023/11/27 08:08:13;;;;;;;1.08;1.08;;;;;;;1.71;89.94;97724.19;4995000;28;20082;-76
2023/11/27 08:10:39;;;;;;;1.00;1.00;;;;;;;1.79;89.78;97722.84;4995396;28;20034;-77
2023/11/27 08:13:05;;;;;;;1.00;1.00;;;;;;;1.79;86.90;97715.84;4993655;28;20133;-77
2023/11/27 08:15:32;;;;;;;1.00;1.00;;;;;;;1.83;87.45;97710.75;4983981;28;20053;-77
2023/11/27 08:18:02;;;;;;;1.00;1.00;;;;;;;1.89;84.43;97713.63;4994635;28;20034;-77
2023/11/27 08:20:32;;;;;;;1.00;1.00;;;;;;;1.91;83.53;97706.72;4995257;28;20057;-77
2023/11/27 08:22:58;;;;;;;1.00;1.00;;;;;;;1.86;84.13;97706.50;4995218;28;20030;-77
2023/11/27 08:25:25;;;;;;;1.10;1.10;;;;;;;1.91;83.35;97701.44;4997259;28;20033;-77
2023/11/27 08:27:55;;;;;;;1.05;1.05;;;;;;;1.97;81.50;97709.63;4996729;28;20280;-76
2023/11/27 08:30:22;;;;;;;1.10;1.10;;;;;;;1.96;82.21;97700.81;5000630;28;20026;-76
2023/11/27 08:32:50;;;;;;;1.08;1.08;;;;;;;2.00;82.92;97702.75;4995407;28;20034;-77
2023/11/27 08:35:19;;;;;;;1.00;1.00;;;;;;;2.11;82.55;97700.66;4995251;28;20108;-76
2023/11/27 08:37:45;;;;;;;1.00;1.00;;;;;;;2.11;81.08;97690.13;4993556;28;20026;-76
2023/11/27 08:40:12;;;;;;;1.10;1.10;;;;;;;2.19;82.23;97691.34;4994633;28;20037;-76
2023/11/27 08:42:39;;;;;;;1.10;1.10;;;;;;;2.33;81.99;97685.81;4993813;28;20091;-76
2023/11/27 08:45:10;;;;;;;1.02;1.02;;;;;;;2.35;80.95;97684.13;4993101;28;20453;-76
2023/11/27 08:47:40;;;;;;;1.10;1.10;;;;;;;2.39;80.44;97676.44;4994845;28;20036;-76
2023/11/27 08:50:07;;;;;;;1.00;1.00;;;;;;;2.38;79.82;97676.38;4993441;28;20387;-76
2023/11/27 08:52:34;;;;;;;1.00;1.00;;;;;;;2.37;79.96;97671.94;4995283;28;20034;-77
2023/11/27 08:55:00;;;;;;;0.90;0.90;;;;;;;2.36;79.70;97668.41;4994672;28;20077;-78
2023/11/27 08:57:26;;;;;;;1.10;1.10;;;;;;;2.35;79.67;97669.25;4995847;28;20088;-77
2023/11/27 08:59:51;;;;;;;1.10;1.10;;;;;;;2.36;79.87;97665.78;4994582;28;20034;-78
2023/11/27 09:02:17;;;;;;;1.10;1.10;;;;;;;2.54;80.40;97663.06;4993048;28;20022;-76
2023/11/27 09:04:42;;;;;;;1.10;1.10;;;;;;;2.43;80.28;97662.56;4994210;28;20109;-77
2023/11/27 09:07:08;;;;;;;1.10;1.10;;;;;;;2.31;79.14;97657.69;4997872;28;20034;-77
2023/11/27 09:09:34;;;;;;;1.08;1.08;;;;;;;2.42;79.35;97654.63;4999995;28;20029;-77
2023/11/27 09:11:59;;;;;;;1.00;1.00;;;;;;;2.51;80.82;97652.38;4995107;28;20149;-77
2023/11/27 09:14:25;;;;;;;1.10;1.10;;;;;;;2.44;79.93;97650.31;4996728;28;20027;-78
2023/11/27 09:16:51;;;;;;;1.10;1.10;;;;;;;2.44;78.88;97640.69;4998404;28;20042;-78
2023/11/27 09:19:16;;;;;;;1.02;1.02;;;;;;;2.63;80.29;97633.56;4999196;28;20279;-78
2023/11/27 09:21:42;;;;;;;1.00;1.00;;;;;;;2.68;78.76;97632.91;4999245;28;20434;-78
2023/11/27 09:24:08;;;;;;;1.00;1.00;;;;;;;2.47;78.26;97630.28;4997125;28;20029;-78
2023/11/27 09:26:33;;;;;;;1.10;1.10;;;;;;;2.75;79.89;97623.56;4998560;28;20045;-78
2023/11/27 09:28:59;;;;;;;1.00;1.00;;;;;;;2.94;78.13;97618.22;4998093;28;20126;-77
2023/11/27 09:31:26;;;;;;;1.00;1.00;;;;;;;2.88;77.74;97619.72;4997040;28;20103;-76
2023/11/27 09:33:52;;;;;;;1.00;1.00;;;;;;;2.79;77.10;97618.47;4997821;28;20034;-76
2023/11/27 09:36:18;;;;;;;1.00;1.00;;;;;;;3.21;75.57;97615.78;4996025;28;20026;-76
2023/11/27 09:38:43;;;;;;;0.90;0.90;;;;;;;3.37;76.85;97611.13;5002646;28;20030;-76
2023/11/27 09:41:10;;;;;;;1.00;1.00;;;;;;;3.46;75.51;97607.09;4999690;28;20066;-76
2023/11/27 09:43:37;;;;;;;1.00;1.00;;;;;;;3.37;74.67;97605.84;4998827;28;20038;-76
2023/11/27 09:46:06;;;;;;;1.10;1.10;;;;;;;3.53;75.65;97595.94;4997419;28;20033;-76
2023/11/27 09:48:37;;;;;;;1.00;1.00;;;;;;;3.55;74.25;97598.66;4998496;28;20395;-76
2023/11/27 09:51:10;;;;;;;1.00;1.00;;;;;;;3.65;74.42;97591.97;4996658;28;20038;-77
2023/11/27 09:53:40;;;;;;;1.00;1.00;;;;;;;3.98;73.37;97585.31;4986771;28;20440;-76
2023/11/27 09:56:10;;;;;;;1.00;1.00;;;;;;;4.09;73.49;97575.13;4998036;28;20807;-77
2023/11/27 09:58:42;;;;;;;1.00;1.00;;;;;;;3.38;73.99;97563.72;5012769;28;20508;-76
2023/11/27 10:01:10;;;;;;;1.00;1.00;;;;;;;3.60;74.13;97554.88;4997053;28;20049;-77
2023/11/27 10:03:38;;;;;;;1.00;1.00;;;;;;;3.97;73.60;97554.47;4997553;28;20093;-76
2023/11/27 10:06:06;;;;;;;0.90;0.90;;;;;;;3.82;72.41;97548.63;4997132;28;20068;-77
2023/11/27 10:08:31;;;;;;;1.00;1.00;;;;;;;4.28;72.06;97545.88;4997482;28;20041;-76
2023/11/27 10:10:57;;;;;;;1.00;1.00;;;;;;;4.68;71.33;97531.38;4996091;28;20030;-76
2023/11/27 10:13:34;;;;;;;1.00;1.00;;;;;;;4.10;71.00;97518.84;4997395;28;20026;-76
2023/11/27 10:16:05;;;;;;;0.90;0.90;;;;;;;4.63;71.50;97509.19;5012205;28;20110;-75
2023/11/27 10:18:32;;;;;;;0.90;0.90;;;;;;;4.50;71.12;97499.94;4996577;28;20105;-75
2023/11/27 10:20:58;;;;;;;1.10;1.10;;;;;;;4.69;70.18;97493.53;4997920;28;20029;-75
2023/11/27 10:23:27;;;;;;;0.90;0.90;;;;;;;4.46;70.43;97479.59;5002929;28;20041;-75
2023/11/27 10:25:59;;;;;;;0.90;0.90;;;;;;;4.81;70.25;97471.91;4998413;28;20113;-75
2023/11/27 10:28:40;;;;;;;0.90;0.90;;;;;;;5.34;69.85;97473.50;4996480;28;20033;-75
2023/11/27 10:31:06;;;;;;;0.90;0.90;;;;;;;5.33;69.05;97465.53;4995888;28;20050;-75
2023/11/27 10:33:32;;;;;;;0.80;0.80;;;;;;;5.84;68.19;97454.59;4996176;28;20663;-75
2023/11/27 10:35:59;;;;;;;0.90;0.90;;;;;;;5.89;68.39;97451.25;4998026;28;20041;-75
2023/11/27 10:38:24;;;;;;;0.80;0.80;;;;;;;5.53;67.01;97444.94;4997469;28;20105;-75
2023/11/27 10:40:51;;;;;;;0.90;0.90;;;;;;;4.62;69.01;97442.25;4995258;28;20113;-76
2023/11/27 10:43:22;;;;;;;0.80;0.80;;;;;;;5.05;70.84;97422.41;4997246;28;20049;-76
2023/11/27 10:45:49;;;;;;;0.90;0.90;;;;;;;4.74;67.25;97422.34;5000375;28;20041;-76
2023/11/27 10:48:17;;;;;;;0.90;0.90;;;;;;;4.52;69.81;97419.06;4994735;28;20152;-76
2023/11/27 10:50:45;;;;;;;0.80;0.80;;;;;;;4.80;69.43;97399.66;4995944;28;20033;-75
2023/11/27 10:53:13;;;;;;;0.95;0.95;;;;;;;4.64;70.08;97394.75;4993778;28;20116;-76
2023/11/27 10:55:43;;;;;;;0.80;0.80;;;;;;;5.41;67.30;97400.50;4995567;28;20133;-76
2023/11/27 10:58:11;;;;;;;0.98;0.98;;;;;;;5.26;67.50;97390.41;4993683;28;20172;-76
2023/11/27 11:00:46;;;;;;;0.90;0.90;;;;;;;5.12;68.01;97387.38;5000544;28;20520;-77
2023/11/27 11:03:21;;;;;;;0.90;0.90;;;;;;;4.84;67.68;97385.69;5010084;28;20575;-77
2023/11/27 11:05:51;;;;;;;0.90;0.90;;;;;;;4.88;68.81;97370.81;4994482;28;20144;-77
2023/11/27 11:08:26;;;;;;;0.90;0.90;;;;;;;5.51;67.82;97359.34;4995100;28;20562;-76
2023/11/27 11:11:01;;;;;;;0.90;0.90;;;;;;;5.65;68.37;97342.06;4991806;28;20042;-77
2023/11/27 11:13:27;;;;;;;0.90;0.90;;;;;;;6.16;65.40;97341.63;4994699;28;20076;-77
2023/11/27 11:16:14;;;;;;;0.90;0.90;;;;;;;6.46;64.88;97345.84;4993256;28;20269;-76
2023/11/27 11:19:07;;;;;;;0.90;0.90;;;;;;;6.00;66.14;97328.88;4994205;28;20495;-77
2023/11/27 11:21:47;;;;;;;0.95;0.95;;;;;;;6.93;63.91;97317.72;4990917;28;20506;-76
2023/11/27 11:24:39;;;;;;;0.80;0.80;;;;;;;7.31;63.32;97304.31;5007265;28;20042;-76
2023/11/27 11:27:21;;;;;;;0.70;0.70;;;;;;;7.36;63.28;97294.69;4993601;28;20042;-76
2023/11/27 11:29:49;;;;;;;0.90;0.90;;;;;;;8.06;59.11;97284.38;4998692;28;20034;-76
2023/11/27 11:32:18;;;;;;;0.70;0.70;;;;;;;6.50;64.22;97271.75;4993300;28;20029;-76
2023/11/27 11:34:51;;;;;;;0.80;0.80;;;;;;;7.06;61.86;97272.03;4992555;28;20048;-76
2023/11/27 11:37:18;;;;;;;0.80;0.80;;;;;;;7.48;62.90;97265.72;4993174;28;20026;-76
2023/11/27 11:39:47;;;;;;;0.90;0.90;;;;;;;8.16;58.29;97252.66;4992140;28;20050;-76
2023/11/27 11:42:17;;;;;;;0.70;0.70;;;;;;;7.82;58.67;97253.03;4994597;28;20685;-76
2023/11/27 11:45:21;;;;;;;0.80;0.80;;;;;;;7.57;53.92;97233.13;5005481;28;20057;-76